Latest Weather Observations for Cooktown

IDQ60801

Issued at 1:03 am EST Monday 27 June 2016 (issued every 30 minutes, with the page automatically refreshed every 10 minutes)

About weather observations | Map of weather stations | Latest weather observations for QLD | Other Formats
Station Details ID: 031209 Name: COOKTOWN AIRPORT Lat: -15.45 Lon: 145.19 Height: 4.8 m
Data from the previous 72 hours. | See also: Recent months at Cooktown
Date/Time
EST
Temp
°C
App
Temp
°C
Dew
Point
°C
Rel
Hum
%
Delta-T
°C
Wind Press
QNH
hPa
Press
MSL
hPa
Rain since
9am
mm
Dir  Spd
km/h
Gust
km/h
Spd
kts
Gust
kts
27/01:00am 20.8 24.8 20.5 98 0.2 CALM 0 4 0 2 1014.4 - 0.2
27/12:30am 21.4 24.5 21.1 98 0.2 WNW 6 7 3 4 1014.4 - 0.2
27/12:00am 21.4 24.8 20.9 97 0.3 WNW 4 7 2 4 1014.5 1014.5 0.2
 
Date/Time
EST
Temp
°C
App
Temp
°C
Dew
Point
°C
Rel
Hum
%
Delta-T
°C
Wind Press
QNH
hPa
Press
MSL
hPa
Rain since
9am
mm
Dir  Spd
km/h
Gust
km/h
Spd
kts
Gust
kts
26/11:30pm 21.3 25.4 20.8 97 0.3 CALM 0 0 0 0 1014.6 - 0.2
26/11:00pm 21.0 24.6 20.5 97 0.3 SSE 2 7 1 4 1014.4 - 0.2
26/10:30pm 21.5 25.7 21.0 97 0.3 CALM 0 7 0 4 1014.4 - 0.2
26/10:00pm 21.8 26.2 21.3 97 0.3 CALM 0 6 0 3 1014.6 - 0.2
26/09:30pm 22.0 26.5 21.5 97 0.3 CALM 0 0 0 0 1014.7 - 0.2
26/09:00pm 22.6 27.4 22.1 97 0.3 CALM 0 0 0 0 1014.5 1014.5 0.2
26/08:30pm 22.7 27.4 21.9 95 0.5 CALM 0 0 0 0 1014.2 - 0.2
26/08:00pm 23.7 27.6 22.5 93 0.8 SSE 6 9 3 5 1013.9 - 0.2
26/07:30pm 23.9 27.5 22.4 91 1.0 SE 7 11 4 6 1013.6 - 0.2
26/07:00pm 24.1 27.4 22.6 91 1.0 ESE 9 13 5 7 1013.4 - 0.2
26/06:30pm 24.4 28.1 22.6 90 1.2 SE 7 13 4 7 1013.3 - 0.2
26/06:00pm 24.8 27.8 22.7 88 1.4 SE 11 17 6 9 1013.1 1013.1 0.2
26/05:30pm 25.3 28.3 22.6 85 1.8 SE 11 15 6 8 1012.9 - 0.2
26/05:00pm 26.0 28.3 22.1 79 2.6 SE 13 17 7 9 1012.6 - 0.2
26/04:30pm 26.4 28.4 22.2 78 2.8 ESE 15 22 8 12 1012.6 - 0.2
26/04:00pm 26.2 28.6 22.2 78 2.7 ESE 13 20 7 11 1012.4 - 0.2
26/03:30pm 26.9 29.0 22.5 77 3.0 ESE 15 22 8 12 1012.3 - 0.2
26/03:00pm 27.1 28.2 22.0 73 3.4 E 19 24 10 13 1012.3 1012.2 0.2
26/02:30pm 27.6 28.9 22.4 73 3.5 E 19 26 10 14 1012.3 - 0.2
26/02:00pm 27.4 28.1 21.6 70 3.9 E 20 26 11 14 1012.6 - 0.2
26/01:30pm 27.2 28.3 22.0 73 3.5 ESE 19 26 10 14 1012.8 - 0.2
26/01:00pm 27.4 28.2 21.7 71 3.8 ESE 20 26 11 14 1013.2 - 0.2
26/12:30pm 28.0 28.7 21.6 68 4.3 E 20 28 11 15 1013.6 - 0.2
26/12:00pm 27.9 29.0 21.9 70 4.0 E 19 28 10 15 1014.1 1014.2 0.2
26/11:30am 27.5 28.7 22.1 72 3.6 E 19 28 10 15 1014.5 - 0.2
26/11:00am 27.5 28.2 22.3 73 3.5 E 22 30 12 16 1014.8 - 0.2
26/10:30am 27.3 28.3 22.2 73 3.4 ESE 20 26 11 14 1014.9 - 0.0
26/10:00am 27.4 29.0 22.8 76 3.1 E 19 26 10 14 1015.2 - 0.0
26/09:30am 27.2 29.0 23.2 79 2.7 E 19 24 10 13 1015.3 - 0.0
26/09:00am 26.2 27.8 22.2 78 2.7 E 17 26 9 14 1015.1 1015.1 0.8
26/08:30am 26.1 29.1 23.3 84 1.9 E 13 19 7 10 1015.1 - 0.8
26/08:00am 24.9 28.6 23.3 91 1.1 ESE 9 13 5 7 1014.6 - 0.8
26/07:30am 23.7 28.8 23.3 98 0.3 W 2 6 1 3 1014.5 - 0.8
26/07:00am 22.8 26.9 22.3 97 0.3 SSE 4 6 2 3 1014.3 - 0.8
26/06:30am 22.9 26.8 22.5 98 0.3 SSE 6 7 3 4 1014.0 - 0.8
26/06:27am 22.9 27.1 22.5 98 0.3 SSE 4 7 2 4 1014.0 - 0.8
26/06:00am 23.0 27.9 22.4 96 0.4 CALM 0 0 0 0 1013.9 1013.9 0.8
26/05:30am 23.5 28.6 22.6 95 0.6 CALM 0 0 0 0 1013.7 - 0.8
26/05:04am 23.3 27.2 22.6 96 0.5 SSE 6 7 3 4 1013.6 - 0.6
26/05:00am 23.3 27.1 22.4 95 0.6 SSE 6 7 3 4 1013.6 - 0.4
26/04:50am 23.4 27.6 22.4 94 0.7 SSE 4 6 2 3 1013.6 - 0.4
26/04:30am 23.4 27.6 22.4 94 0.7 SSE 4 7 2 4 1013.5 - 0.4
26/04:00am 23.1 28.0 22.3 95 0.5 CALM 0 0 0 0 1013.3 - 0.4
26/03:36am 23.2 28.2 22.5 96 0.5 CALM 0 0 0 0 1013.1 - 0.4
26/03:30am 23.2 28.1 22.3 95 0.6 CALM 0 0 0 0 1013.0 - 0.4
26/03:00am 23.3 26.4 22.2 93 0.7 SSE 9 13 5 7 1013.1 1013.1 0.4
26/02:30am 23.3 26.0 22.2 93 0.7 SSE 11 15 6 8 1013.3 - 0.4
26/02:00am 23.1 26.6 22.2 95 0.6 SSE 7 13 4 7 1013.5 - 0.4
26/01:57am 23.1 26.6 22.2 95 0.6 SSE 7 11 4 6 1013.5 - 0.4
26/01:37am 23.0 26.1 22.2 95 0.5 SSE 9 13 5 7 1013.8 - 0.4
26/01:30am 23.1 26.1 22.0 93 0.7 SSE 9 13 5 7 1013.9 - 0.4
26/01:00am 23.0 25.7 22.1 95 0.6 SE 11 15 6 8 1014.1 - 0.4
26/12:52am 23.0 25.7 22.1 95 0.6 SSE 11 17 6 9 1014.1 - 0.4
26/12:46am 23.0 25.3 22.1 95 0.6 SSE 13 24 7 13 1014.2 - 0.4
26/12:30am 23.0 25.7 22.1 95 0.6 SE 11 20 6 11 1014.4 - 0.4
26/12:16am 23.2 25.8 22.0 93 0.8 SE 11 20 6 11 1014.6 - 0.2
26/12:00am 23.2 25.7 21.8 92 0.9 SE 11 17 6 9 1014.7 1014.7 0.0
 
Date/Time
EST
Temp
°C
App
Temp
°C
Dew
Point
°C
Rel
Hum
%
Delta-T
°C
Wind Press
QNH
hPa
Press
MSL
hPa
Rain since
9am
mm
Dir  Spd
km/h
Gust
km/h
Spd
kts
Gust
kts
25/11:54pm 23.2 25.7 21.8 92 0.9 SE 11 17 6 9 1014.8 - 0.0
25/11:34pm 23.3 25.9 21.9 92 0.9 SE 11 19 6 10 1014.9 - 0.0
25/11:30pm 23.6 25.8 21.8 90 1.2 SSE 13 19 7 10 1014.9 - 0.0
25/11:00pm 23.8 26.0 21.8 88 1.3 SE 13 26 7 14 1015.0 - 0.0
25/10:30pm 23.8 25.6 21.8 88 1.3 SSE 15 20 8 11 1015.2 - 0.0
25/10:00pm 24.4 25.6 21.5 84 1.9 SE 17 24 9 13 1015.1 - 0.0
25/09:30pm 24.5 25.2 21.2 82 2.2 SE 19 28 10 15 1015.0 - 0.0
25/09:00pm 24.3 24.8 20.8 81 2.3 SE 19 28 10 15 1014.9 1014.9 0.0
25/08:30pm 24.2 24.7 20.8 81 2.2 SE 19 26 10 14 1014.8 - 0.0
25/07:30pm 23.9 25.1 20.7 82 2.1 SSE 15 26 8 14 1014.2 - 0.0
25/07:00pm 23.8 25.3 20.6 82 2.1 SE 13 19 7 10 1013.9 - 0.0
25/06:30pm 24.0 24.7 20.5 81 2.3 SE 17 30 9 16 1013.8 - 0.0
25/06:00pm 24.1 25.3 20.6 81 2.3 SE 15 28 8 15 1013.7 1013.7 0.0
25/05:30pm 24.7 25.8 20.4 77 2.8 SE 15 28 8 15 1013.7 - 0.0
25/05:00pm 25.4 26.1 20.5 74 3.2 SE 17 28 9 15 1013.5 - 0.0
25/04:30pm 25.3 25.7 20.6 75 3.1 SE 19 30 10 16 1013.3 - 0.0
25/04:00pm 25.9 26.3 20.6 72 3.5 SE 19 32 10 17 1013.2 - 0.0
25/03:30pm 26.4 26.3 20.8 71 3.7 SE 22 35 12 19 1013.3 - 0.0
25/03:00pm 26.5 25.6 20.7 70 3.8 SE 26 39 14 21 1013.2 1013.2 0.0
25/02:46pm 26.6 25.3 20.7 70 3.9 SE 28 46 15 25 1013.3 - 0.0
25/02:30pm 27.0 26.4 21.3 71 3.8 SE 26 39 14 21 1013.4 - 0.0
25/02:26pm 27.0 26.5 21.4 71 3.7 ESE 26 37 14 20 1013.5 - 0.0
25/02:00pm 27.3 28.3 22.9 77 3.0 ESE 22 35 12 19 1013.5 - 0.0
25/01:47pm 26.5 26.8 22.2 77 2.9 SE 24 37 13 20 1013.7 - 0.0
25/01:35pm 27.0 27.9 22.6 77 3.0 ESE 22 32 12 17 1013.7 - 0.0
25/01:30pm 26.9 28.1 22.5 77 3.0 SE 20 30 11 16 1013.8 - 0.0
25/01:10pm 27.6 27.9 22.9 75 3.2 E 26 35 14 19 1014.0 - 0.0
25/01:00pm 27.1 26.8 22.5 76 3.1 E 28 37 15 20 1014.1 - 0.0
25/12:42pm 27.0 26.8 22.1 74 3.3 E 26 37 14 20 1014.4 - 0.0
25/12:30pm 26.9 27.0 22.6 77 2.9 E 26 39 14 21 1014.7 - 0.0
25/12:00pm 27.6 26.8 22.3 73 3.6 E 30 39 16 21 1015.0 1014.9 0.0
25/11:30am 26.8 27.0 22.7 78 2.8 E 26 35 14 19 1015.3 - 0.0
25/11:00am 27.4 27.1 22.5 74 3.3 E 28 41 15 22 1015.5 - 0.0
25/10:30am 27.5 27.4 22.3 73 3.5 E 26 33 14 18 1015.6 - 0.0
25/10:00am 27.6 28.3 22.3 73 3.6 ESE 22 33 12 18 1015.6 - 0.0
25/09:30am 26.9 27.3 22.4 76 3.0 ESE 24 35 13 19 1015.5 - 0.0
25/09:00am 26.5 26.6 21.9 76 3.1 ESE 24 33 13 18 1015.1 1015.0 0.0
25/08:30am 26.4 26.9 21.9 76 3.0 ESE 22 37 12 20 1014.9 - 0.0
25/08:00am 25.8 26.8 22.1 80 2.5 ESE 20 28 11 15 1014.4 - 0.0
25/07:30am 25.3 26.6 21.7 80 2.4 ESE 17 26 9 14 1014.1 - 0.0
25/07:00am 25.0 26.8 21.8 82 2.1 ESE 15 28 8 15 1013.8 - 0.0
25/06:30am 24.8 27.3 22.4 86 1.6 ESE 13 19 7 10 1013.5 - 0.0
25/06:00am 24.8 26.9 22.4 86 1.6 ESE 15 20 8 11 1013.3 - 0.0
25/05:30am 24.8 26.6 22.6 87 1.5 E 17 20 9 11 1013.1 - 0.0
25/05:24am 24.9 26.1 22.5 86 1.6 E 20 30 11 16 1013.1 - 0.0
25/05:14am 25.0 26.8 22.6 86 1.6 E 17 24 9 13 1013.0 - 0.0
25/05:00am 25.0 26.4 22.5 86 1.7 ESE 19 24 10 13 1013.0 - 0.0
25/04:30am 24.8 27.1 22.7 88 1.4 ESE 15 20 8 11 1012.7 - 0.0
25/04:00am 25.0 27.7 22.9 88 1.4 ESE 13 22 7 12 1012.6 - 0.0
25/03:30am 24.4 27.6 23.1 92 0.9 E 11 17 6 9 1012.6 - 0.0
25/03:00am 24.0 27.4 22.7 92 0.9 ESE 9 13 5 7 1012.8 1012.8 0.0
25/02:30am 24.2 27.3 22.9 92 0.9 ESE 11 17 6 9 1013.0 - 0.0
25/02:00am 24.4 27.9 22.8 91 1.1 ESE 9 11 5 6 1013.2 - 0.0
25/01:30am 24.4 27.6 23.1 92 0.9 ESE 11 17 6 9 1013.5 - 0.0
25/01:23am 24.5 27.7 23.0 91 1.0 E 11 17 6 9 1013.6 - 0.0
25/01:00am 25.0 29.0 23.1 89 1.3 SE 7 9 4 5 1013.5 - 0.0
25/12:57am 25.0 29.1 23.2 90 1.2 ESE 7 11 4 6 1013.5 - 0.0
25/12:31am 25.2 28.1 23.1 88 1.4 E 13 19 7 10 1013.6 - 0.0
25/12:30am 25.2 28.1 23.1 88 1.4 E 13 19 7 10 1013.6 - 0.0
25/12:00am 25.2 28.2 23.3 89 1.3 E 13 19 7 10 1013.8 1013.8 0.0
 
Date/Time
EST
Temp
°C
App
Temp
°C
Dew
Point
°C
Rel
Hum
%
Delta-T
°C
Wind Press
QNH
hPa
Press
MSL
hPa
Rain since
9am
mm
Dir  Spd
km/h
Gust
km/h
Spd
kts
Gust
kts
24/11:30pm 25.2 28.2 23.4 90 1.2 E 13 15 7 8 1014.0 - 0.0
24/11:00pm 25.2 27.9 23.4 90 1.2 E 15 20 8 11 1014.3 - 0.0
24/10:30pm 25.3 28.4 23.5 90 1.2 E 13 19 7 10 1014.3 - 0.0
24/10:11pm 25.2 28.4 23.7 91 1.0 E 13 19 7 10 1014.3 - 0.0
24/10:00pm 25.2 28.9 23.9 92 0.9 E 11 15 6 8 1014.3 - 0.0
24/09:56pm 25.1 28.8 23.9 93 0.8 E 11 15 6 8 1014.3 - 0.0
24/09:42pm 25.0 29.0 23.8 93 0.8 E 9 13 5 7 1014.3 - 0.0
24/09:30pm 24.7 30.1 23.8 95 0.6 E 2 9 1 5 1014.2 - 0.0
24/09:00pm 24.1 28.8 23.4 96 0.5 E 4 7 2 4 1014.1 1014.1 0.0
24/08:57pm 24.1 28.8 23.4 96 0.5 E 4 7 2 4 1014.1 - 0.0
24/08:30pm 24.0 29.4 23.3 96 0.5 CALM 0 6 0 3 1013.8 - 0.0
24/08:00pm 23.7 27.8 23.0 96 0.5 E 6 9 3 5 1013.5 - 0.0
24/07:30pm 24.1 29.6 23.4 96 0.5 CALM 0 0 0 0 1013.4 - 0.0
24/07:00pm 24.5 28.7 23.5 94 0.7 SE 7 9 4 5 1013.3 - 0.0
24/06:30pm 24.8 29.3 23.6 93 0.8 ESE 6 9 3 5 1012.8 - 0.0
24/06:00pm 25.2 29.2 23.7 91 1.0 E 9 13 5 7 1012.5 1012.5 0.0
24/05:30pm 25.8 29.1 23.8 89 1.4 E 13 15 7 8 1012.4 - 0.0
24/05:00pm 26.4 28.6 23.3 83 2.1 E 17 22 9 12 1012.2 - 0.0
24/04:48pm 26.7 28.3 23.3 81 2.3 E 20 28 11 15 1012.3 - 0.0
24/04:30pm 27.0 29.1 23.8 82 2.2 E 19 24 10 13 1012.2 - 0.0
24/04:28pm 27.0 29.1 23.8 82 2.2 E 19 24 10 13 1012.1 - 0.0
24/04:00pm 27.3 29.4 23.7 81 2.5 E 19 26 10 14 1012.0 - 0.0
24/03:40pm 27.7 29.6 23.8 79 2.7 ENE 20 26 11 14 1012.0 - 0.0
24/03:30pm 27.6 29.5 23.5 78 2.8 E 19 24 10 13 1012.1 - 0.0
24/03:08pm 27.4 28.9 23.1 77 2.9 E 20 30 11 16 1012.2 - 0.0
24/03:00pm 27.6 29.9 23.4 78 2.9 E 17 24 9 13 1012.3 1012.3 0.0
24/02:30pm 28.3 30.1 23.6 75 3.2 E 20 30 11 16 1012.4 - 0.0
24/02:00pm 28.6 29.8 23.2 72 3.7 E 22 30 12 16 1012.4 - 0.0
24/01:30pm 28.8 30.2 22.8 70 4.1 E 20 32 11 17 1012.5 - 0.0
24/01:00pm 28.8 30.2 22.8 70 4.1 ESE 20 30 11 16 1012.9 - 0.0
24/12:30pm 29.1 30.8 23.1 70 4.1 ESE 19 30 10 16 1013.3 - 0.0
24/12:00pm 28.1 29.8 23.1 74 3.4 ESE 19 28 10 15 1013.7 1013.8 0.0
24/11:30am 28.6 30.6 23.0 71 3.8 ESE 17 24 9 13 1013.9 - 0.0
24/11:00am 28.6 30.4 23.3 73 3.6 SE 19 30 10 16 1014.1 - 0.0
24/10:30am 27.6 29.5 23.5 78 2.8 ESE 19 24 10 13 1014.2 - 0.0
24/10:00am 27.0 30.3 23.2 80 2.6 SE 11 22 6 12 1014.2 - 0.0
24/09:30am 27.5 30.9 23.4 78 2.8 ESE 11 17 6 9 1014.2 - 0.0
24/09:00am 26.6 30.4 23.5 83 2.1 SE 9 15 5 8 1014.3 1014.3 2.0
24/08:30am 26.3 30.1 23.5 84 1.9 SE 9 13 5 7 1014.1 - 2.0
24/08:00am 25.7 31.2 24.1 91 1.1 SE 2 6 1 3 1013.8 - 2.0
24/07:30am 24.2 29.8 23.5 96 0.5 CALM 0 0 0 0 1013.4 - 2.0
24/07:11am 23.8 28.7 23.1 96 0.5 SE 2 9 1 5 1013.3 - 2.0
24/07:00am 23.7 27.6 23.0 96 0.5 ESE 7 13 4 7 1013.3 - 2.0
24/06:53am 23.7 26.9 23.1 96 0.4 ESE 11 15 6 8 1013.3 - 2.0
24/06:41am 23.8 27.0 23.1 96 0.5 ESE 11 17 6 9 1013.2 - 2.0
24/06:30am 23.9 27.2 23.2 96 0.5 ESE 11 19 6 10 1013.1 - 1.6
24/06:03am 23.8 27.4 23.1 96 0.5 SE 9 15 5 8 1012.6 - 1.2
24/06:00am 23.8 27.4 23.1 96 0.5 SE 9 13 5 7 1012.6 1012.5 1.2
24/05:46am 23.7 26.9 23.0 96 0.5 ESE 11 15 6 8 1012.5 - 1.2
24/05:42am 23.6 27.2 23.0 96 0.4 SE 9 15 5 8 1012.4 - 1.2
24/05:30am 23.8 28.0 23.4 98 0.3 ESE 7 11 4 6 1012.5 - 1.2
24/05:00am 23.8 27.6 23.4 98 0.3 ENE 9 15 5 8 1012.2 - 1.2
24/04:30am 23.8 27.2 23.4 98 0.3 E 11 17 6 9 1012.0 - 1.0
24/04:02am 23.7 27.7 23.1 96 0.4 N 7 13 4 7 1012.1 - 0.6
24/04:00am 23.7 27.8 23.3 98 0.3 NNW 7 11 4 6 1012.1 - 0.6
24/03:57am 23.7 28.0 23.3 98 0.3 NW 6 9 3 5 1012.1 - 0.6
24/03:48am 23.7 28.0 23.3 98 0.3 WNW 6 7 3 4 1011.9 - 0.6
24/03:35am 23.7 27.9 23.1 96 0.4 NW 6 7 3 4 1011.8 - 0.6
24/03:30am 23.7 27.9 23.1 96 0.4 NW 6 7 3 4 1011.9 - 0.6
24/03:00am 23.7 29.0 23.0 96 0.5 CALM 0 0 0 0 1011.9 1011.8 0.6
24/02:30am 23.9 29.3 23.2 96 0.5 CALM 0 0 0 0 1012.1 - 0.6
24/02:00am 23.8 27.8 22.8 94 0.7 S 6 7 3 4 1012.3 - 0.6
24/01:30am 23.8 29.0 22.8 94 0.7 CALM 0 11 0 6 1012.4 - 0.6

Other Formats:

Comma delimited format used in spreadsheet applications
http://www.bom.gov.au/fwo/IDQ60801/IDQ60801.95283.axf

JavaScript Object Notation format (JSON) in row-major order
http://www.bom.gov.au/fwo/IDQ60801/IDQ60801.95283.json